createdAt,value
2022-12-03T00:00:23.105Z,99343.19
2022-12-03T00:03:48.246Z,99337.22
2022-12-03T00:06:51.574Z,99335.25
2022-12-03T00:09:55.250Z,99339.19
2022-12-03T00:12:58.527Z,99343.13
2022-12-03T00:16:02.488Z,99339.38
2022-12-03T00:19:07.709Z,99338.06
2022-12-03T00:22:12.829Z,99341.69
2022-12-03T00:25:17.049Z,99336.81
2022-12-03T00:28:21.062Z,99338.41
2022-12-03T00:31:24.959Z,99337.25
2022-12-03T00:34:30.107Z,99344.78
2022-12-03T00:37:35.094Z,99340.03
2022-12-03T00:40:38.739Z,99335.19
2022-12-03T00:43:42.016Z,99338.97
2022-12-03T00:46:45.580Z,99332.09
2022-12-03T00:49:50.260Z,99346.66
2022-12-03T00:52:53.708Z,99342.63
2022-12-03T00:55:56.959Z,99345.75
2022-12-03T00:59:00.480Z,99353.09
2022-12-03T01:02:04.043Z,99349.44
2022-12-03T01:05:10.814Z,99349.09
2022-12-03T01:08:14.267Z,99347.25
2022-12-03T01:11:35.434Z,99352.63
2022-12-03T01:14:38.874Z,99346.38
2022-12-03T01:17:42.620Z,99350.81
2022-12-03T01:20:47.379Z,99348.34
2022-12-03T01:23:51.088Z,99351.47
2022-12-03T01:26:55.767Z,99345.75
2022-12-03T01:29:59.267Z,99345.75
2022-12-03T01:33:01.467Z,99340.53
2022-12-03T01:36:07.295Z,99344.13
2022-12-03T01:39:10.662Z,99339.38
2022-12-03T01:42:20.769Z,99337.75
2022-12-03T01:45:25.445Z,99344.47
2022-12-03T01:48:32.867Z,99331.69
2022-12-03T01:51:37.647Z,99330.22
2022-12-03T01:54:46.287Z,99319.88
2022-12-03T01:57:54.130Z,99322.66
2022-12-03T02:01:02.640Z,99322.53
2022-12-03T02:04:06.372Z,99309.31
2022-12-03T02:07:28.391Z,99319.47
2022-12-03T02:10:37.231Z,99309.81
2022-12-03T02:13:41.812Z,99310.03
2022-12-03T02:16:45.921Z,99305.75
2022-12-03T02:19:50.802Z,99303.78
2022-12-03T02:23:07.262Z,99306.56
2022-12-03T02:26:12.481Z,99303.09
2022-12-03T02:29:15.852Z,99309.00
2022-12-03T02:32:23.343Z,99318.16
2022-12-03T02:35:29.783Z,99309.50
2022-12-03T02:38:36.147Z,99315.38
2022-12-03T02:41:58.175Z,99314.56
2022-12-03T02:45:06.415Z,99313.28
2022-12-03T02:48:15.054Z,99319.31
2022-12-03T02:51:19.777Z,99330.47
2022-12-03T02:54:23.547Z,99331.44
2022-12-03T02:57:28.693Z,99327.50
2022-12-03T03:00:32.437Z,99332.72
2022-12-03T03:03:39.030Z,99324.03
2022-12-03T03:06:42.486Z,99325.66
2022-12-03T03:09:46.419Z,99322.53
2022-12-03T03:12:53.780Z,99319.41
2022-12-03T03:15:58.441Z,99316.63
2022-12-03T03:19:02.251Z,99313.84
2022-12-03T03:22:06.525Z,99312.69
2022-12-03T03:25:14.067Z,99314.19
2022-12-03T03:28:20.349Z,99322.59
2022-12-03T03:31:25.455Z,99319.47
2022-12-03T03:34:30.301Z,99309.81
2022-12-03T03:37:34.243Z,99314.25
2022-12-03T03:40:39.170Z,99311.47
2022-12-03T03:43:46.912Z,99310.63
2022-12-03T03:46:50.678Z,99308.19
2022-12-03T03:49:54.806Z,99314.44
2022-12-03T03:53:01.014Z,99318.38
2022-12-03T03:56:04.844Z,99316.53
2022-12-03T03:59:10.371Z,99307.03
2022-12-03T04:02:20.830Z,99307.72
2022-12-03T04:05:26.475Z,99314.78
2022-12-03T04:08:29.821Z,99321.34
2022-12-03T04:11:53.300Z,99315.78
2022-12-03T04:14:58.303Z,99308.75
2022-12-03T04:18:16.379Z,99297.59
2022-12-03T04:21:40.529Z,99303.50
2022-12-03T04:24:44.367Z,99299.91
2022-12-03T04:28:05.326Z,99313.97
2022-12-03T04:31:24.860Z,99305.63
2022-12-03T04:34:45.906Z,99313.00
2022-12-03T04:37:49.465Z,99315.31
2022-12-03T04:41:07.708Z,99314.50
2022-12-03T04:44:29.471Z,99311.84
2022-12-03T04:47:39.646Z,99309.41
2022-12-03T04:50:43.954Z,99311.69
2022-12-03T04:53:47.333Z,99302.22
2022-12-03T04:56:51.156Z,99295.00
2022-12-03T04:59:54.435Z,99291.56
2022-12-03T05:02:59.640Z,99293.53
2022-12-03T05:06:03.820Z,99295.81
2022-12-03T05:09:07.556Z,99287.16
2022-12-03T05:12:10.753Z,99296.50
2022-12-03T05:15:14.353Z,99292.41
2022-12-03T05:18:19.186Z,99286.50
2022-12-03T05:21:23.029Z,99302.06
2022-12-03T05:24:26.254Z,99302.72
2022-12-03T05:27:30.453Z,99298.78
2022-12-03T05:30:34.026Z,99296.66
2022-12-03T05:33:43.952Z,99282.28
2022-12-03T05:36:47.735Z,99279.50
2022-12-03T05:39:51.613Z,99283.91
2022-12-03T05:42:54.870Z,99279.81
2022-12-03T05:45:58.584Z,99283.44
2022-12-03T05:49:03.190Z,99272.78
2022-12-03T05:52:07.691Z,99268.84
2022-12-03T05:55:12.175Z,99266.06
2022-12-03T05:58:16.045Z,99261.81
2022-12-03T06:01:19.261Z,99259.84
2022-12-03T06:04:24.311Z,99265.06
2022-12-03T06:07:27.796Z,99268.34
2022-12-03T06:10:32.477Z,99263.91
2022-12-03T06:13:35.734Z,99271.31
2022-12-03T06:16:39.580Z,99277.19
2022-12-03T06:19:44.431Z,99270.00
2022-12-03T06:22:49.504Z,99284.25
2022-12-03T06:25:52.990Z,99276.69
2022-12-03T06:28:56.795Z,99280.94
2022-12-03T06:32:00.098Z,99266.13
2022-12-03T06:35:06.016Z,99279.19
2022-12-03T06:38:09.303Z,99285.41
2022-12-03T06:41:12.804Z,99291.78
2022-12-03T06:44:16.484Z,99292.91
2022-12-03T06:47:20.454Z,99288.84
2022-12-03T06:50:25.245Z,99292.41
2022-12-03T06:53:28.984Z,99291.13
2022-12-03T06:56:37.848Z,99295.66
2022-12-03T06:59:45.574Z,99303.19
2022-12-03T07:02:48.901Z,99296.59
2022-12-03T07:05:54.215Z,99300.38
2022-12-03T07:08:57.596Z,99304.63
2022-12-03T07:12:01.246Z,99306.06
2022-12-03T07:15:05.038Z,99311.59
2022-12-03T07:18:08.952Z,99304.09
2022-12-03T07:21:13.789Z,99315.41
2022-12-03T07:24:17.509Z,99322.75
2022-12-03T07:27:20.663Z,99311.28
2022-12-03T07:30:25.738Z,99318.47
2022-12-03T07:33:29.067Z,99318.59
2022-12-03T07:36:35.309Z,99310.06
2022-12-03T07:39:38.856Z,99314.31
2022-12-03T07:42:42.405Z,99302.16
2022-12-03T07:45:45.831Z,99298.88
2022-12-03T07:48:49.434Z,99306.88
2022-12-03T07:51:54.693Z,99303.63
2022-12-03T07:54:58.696Z,99313.94
2022-12-03T07:58:02.064Z,99303.47
2022-12-03T08:01:06.068Z,99311.31
2022-12-03T08:04:09.760Z,99315.59
2022-12-03T08:07:15.623Z,99302.50
2022-12-03T08:10:19.588Z,99300.88
2022-12-03T08:13:23.126Z,99296.47
2022-12-03T08:16:27.959Z,99293.69
2022-12-03T08:19:31.549Z,99298.06
2022-12-03T08:22:36.046Z,99288.25
2022-12-03T08:25:40.398Z,99298.25
2022-12-03T08:28:44.059Z,99299.53
2022-12-03T08:31:52.128Z,99311.63
2022-12-03T08:34:55.659Z,99301.13
2022-12-03T08:38:06.839Z,99295.38
2022-12-03T08:41:15.496Z,99297.97
2022-12-03T08:44:28.407Z,99299.75
2022-12-03T08:47:31.641Z,99300.09
2022-12-03T08:50:41.804Z,99293.03
2022-12-03T08:53:50.523Z,99308.75
2022-12-03T08:56:55.437Z,99303.78
2022-12-03T09:00:05.078Z,99294.75
2022-12-03T09:03:16.914Z,99295.72
2022-12-03T09:06:20.378Z,99289.59
2022-12-03T09:09:26.037Z,99294.84
2022-12-03T09:12:29.244Z,99296.47
2022-12-03T09:15:33.260Z,99296.66
2022-12-03T09:18:36.563Z,99294.75
2022-12-03T09:21:40.392Z,99290.00
2022-12-03T09:24:45.490Z,99297.44
2022-12-03T09:27:49.795Z,99298.75
2022-12-03T09:30:53.022Z,99299.81
2022-12-03T09:33:56.512Z,99308.78
2022-12-03T09:36:59.636Z,99298.03
2022-12-03T09:40:05.780Z,99304.00
2022-12-03T09:43:10.433Z,99301.97
2022-12-03T09:46:14.544Z,99291.63
2022-12-03T09:49:20.563Z,99297.75
2022-12-03T09:52:28.486Z,99298.84
2022-12-03T09:55:33.206Z,99299.38
2022-12-03T09:58:37.212Z,99307.50
2022-12-03T10:01:40.795Z,99313.53
2022-12-03T10:04:44.704Z,99308.84
2022-12-03T10:07:49.397Z,99296.44
2022-12-03T10:10:57.523Z,99301.94
2022-12-03T10:14:01.061Z,99301.31
2022-12-03T10:17:05.618Z,99302.41
2022-12-03T10:20:15.158Z,99290.03
2022-12-03T10:23:24.397Z,99285.31
2022-12-03T10:26:41.259Z,99295.38
2022-12-03T10:29:57.111Z,99293.75
2022-12-03T10:33:15.689Z,99288.13
2022-12-03T10:36:25.214Z,99285.34
2022-12-03T10:39:28.613Z,99277.13
2022-12-03T10:42:36.883Z,99272.69
2022-12-03T10:45:40.596Z,99276.56
2022-12-03T10:48:44.375Z,99274.38
2022-12-03T10:51:49.785Z,99279.69
2022-12-03T10:54:53.830Z,99279.63
2022-12-03T10:57:59.143Z,99275.72
2022-12-03T11:01:08.068Z,99275.03
2022-12-03T11:04:23.816Z,99281.13
2022-12-03T11:07:27.597Z,99275.75
2022-12-03T11:10:30.941Z,99287.09
2022-12-03T11:13:53.284Z,99278.59
2022-12-03T11:17:11.650Z,99278.78
2022-12-03T11:21:06.453Z,99278.28
2022-12-03T11:24:27.438Z,99277.78
2022-12-03T11:27:31.551Z,99269.13
2022-12-03T11:31:02.517Z,99269.66
2022-12-03T11:34:42.545Z,99271.13
2022-12-03T11:37:46.020Z,99265.72
2022-12-03T11:41:12.078Z,99268.84
2022-12-03T11:44:33.743Z,99262.63
2022-12-03T11:47:42.739Z,99265.75
2022-12-03T11:50:52.555Z,99268.53
2022-12-03T11:54:00.831Z,99268.53
2022-12-03T11:57:04.600Z,99276.25
2022-12-03T12:00:23.871Z,99274.47
2022-12-03T12:03:33.480Z,99257.50
2022-12-03T12:06:43.723Z,99255.88
2022-12-03T12:09:53.475Z,99255.06
2022-12-03T12:12:57.367Z,99259.28
2022-12-03T12:16:01.443Z,99257.66
2022-12-03T12:19:41.381Z,99248.34
2022-12-03T12:22:44.689Z,99249.50
2022-12-03T12:25:53.770Z,99245.38
2022-12-03T12:28:57.615Z,99236.41
2022-12-03T12:32:12.721Z,99225.31
2022-12-03T12:35:21.614Z,99233.78
2022-12-03T12:38:25.277Z,99219.53
2022-12-03T12:41:29.659Z,99218.72
2022-12-03T12:44:33.244Z,99196.34
2022-12-03T12:47:37.618Z,99190.81
2022-12-03T12:50:44.548Z,99185.25
2022-12-03T12:53:48.684Z,99200.28
2022-12-03T12:56:53.312Z,99209.94
2022-12-03T12:59:56.725Z,99212.56
2022-12-03T13:03:04.846Z,99210.41
2022-12-03T13:06:17.060Z,99217.75
2022-12-03T13:09:24.722Z,99216.50
2022-12-03T13:12:28.105Z,99220.91
2022-12-03T13:15:43.677Z,99221.59
2022-12-03T13:18:50.701Z,99228.28
2022-12-03T13:21:58.695Z,99221.13
2022-12-03T13:25:58.296Z,99231.75
2022-12-03T13:28:58.689Z,99237.81
2022-12-03T13:32:12.925Z,99238.25
2022-12-03T13:35:31.433Z,99235.03
2022-12-03T13:38:36.264Z,99223.91
2022-12-03T13:41:57.278Z,99222.72
2022-12-03T13:45:03.786Z,99228.94
2022-12-03T13:48:23.071Z,99205.22
2022-12-03T13:51:30.845Z,99221.09
2022-12-03T13:54:39.215Z,99223.03
2022-12-03T13:57:42.607Z,99221.91
2022-12-03T14:00:46.281Z,99229.41
2022-12-03T14:03:51.751Z,99221.91
2022-12-03T14:06:55.811Z,99226.44
2022-12-03T14:10:00.706Z,99223.88
2022-12-03T14:13:04.201Z,99227.03
2022-12-03T14:16:08.025Z,99224.16
2022-12-03T14:19:11.551Z,99223.88
2022-12-03T14:22:14.750Z,99226.53
2022-12-03T14:25:19.599Z,99226.94
2022-12-03T14:28:22.844Z,99216.53
2022-12-03T14:31:26.485Z,99214.53
2022-12-03T14:34:30.304Z,99215.28
2022-12-03T14:37:34.149Z,99215.84
2022-12-03T14:40:38.909Z,99215.09
2022-12-03T14:43:42.623Z,99226.34
2022-12-03T14:46:46.232Z,99226.91
2022-12-03T14:49:51.084Z,99227.63
2022-12-03T14:52:54.551Z,99223.88
2022-12-03T14:55:59.729Z,99227.50
2022-12-03T14:59:03.290Z,99233.66
2022-12-03T15:02:07.276Z,99228.16
2022-12-03T15:05:11.543Z,99225.00
2022-12-03T15:08:15.162Z,99233.88
2022-12-03T15:11:20.207Z,99226.41
2022-12-03T15:14:23.956Z,99217.78
2022-12-03T15:17:31.741Z,99217.13
2022-12-03T15:20:37.909Z,99225.19
2022-12-03T15:23:41.735Z,99228.66
2022-12-03T15:26:46.922Z,99228.31
2022-12-03T15:29:51.041Z,99223.44
2022-12-03T15:32:55.109Z,99247.66
2022-12-03T15:35:58.659Z,99236.38
2022-12-03T15:39:02.504Z,99242.59
2022-12-03T15:42:09.039Z,99237.06
2022-12-03T15:45:15.339Z,99237.38
2022-12-03T15:48:19.182Z,99246.41
2022-12-03T15:51:22.968Z,99255.09
2022-12-03T15:54:26.404Z,99256.25
2022-12-03T15:57:31.638Z,99253.13
2022-12-03T16:00:35.120Z,99250.69
2022-12-03T16:03:38.880Z,99250.53
2022-12-03T16:06:42.277Z,99248.91
2022-12-03T16:09:46.694Z,99252.50
2022-12-03T16:12:51.574Z,99250.03
2022-12-03T16:15:55.325Z,99254.47
2022-12-03T16:18:58.837Z,99245.13
2022-12-03T16:22:02.638Z,99243.97
2022-12-03T16:25:07.191Z,99250.81
2022-12-03T16:28:12.235Z,99250.47
2022-12-03T16:31:16.035Z,99250.94
2022-12-03T16:34:19.856Z,99247.84
2022-12-03T16:37:24.050Z,99247.84
2022-12-03T16:40:27.635Z,99243.91
2022-12-03T16:43:38.472Z,99240.66
2022-12-03T16:46:42.185Z,99247.84
2022-12-03T16:49:45.412Z,99242.28
2022-12-03T16:52:49.145Z,99244.56
2022-12-03T16:55:52.371Z,99237.88
2022-12-03T16:58:57.497Z,99240.47
2022-12-03T17:02:01.160Z,99244.19
2022-12-03T17:05:05.598Z,99239.59
2022-12-03T17:08:09.182Z,99231.72
2022-12-03T17:11:12.782Z,99229.75
2022-12-03T17:14:17.672Z,99229.41
2022-12-03T17:17:21.410Z,99230.25
2022-12-03T17:20:25.210Z,99224.53
2022-12-03T17:23:28.764Z,99221.25
2022-12-03T17:26:32.421Z,99218.00
2022-12-03T17:29:37.444Z,99215.09
2022-12-03T17:32:41.280Z,99220.19
2022-12-03T17:35:45.990Z,99225.75
2022-12-03T17:38:49.441Z,99223.28
2022-12-03T17:41:53.052Z,99225.06
2022-12-03T17:44:57.902Z,99224.25
2022-12-03T17:48:01.826Z,99227.69
2022-12-03T17:51:05.677Z,99224.59
2022-12-03T17:54:09.458Z,99227.84
2022-12-03T17:57:12.928Z,99220.94
2022-12-03T18:00:18.865Z,99222.72
2022-12-03T18:03:22.626Z,99227.59
2022-12-03T18:06:26.414Z,99221.69
2022-12-03T18:09:30.028Z,99215.31
2022-12-03T18:12:33.790Z,99214.50
2022-12-03T18:15:38.915Z,99209.41
2022-12-03T18:18:42.954Z,99207.94
2022-12-03T18:21:46.582Z,99199.25
2022-12-03T18:24:52.007Z,99201.38
2022-12-03T18:27:55.703Z,99207.06
2022-12-03T18:31:01.497Z,99204.41
2022-12-03T18:34:05.317Z,99195.25
2022-12-03T18:37:13.133Z,99199.19
2022-12-03T18:40:23.596Z,99189.19
2022-12-03T18:43:28.997Z,99194.31
2022-12-03T18:46:52.976Z,99191.72
2022-12-03T18:49:57.949Z,99191.56
2022-12-03T18:53:01.680Z,99193.53
2022-12-03T18:56:05.983Z,99190.09
2022-12-03T18:59:11.164Z,99192.06
2022-12-03T19:02:53.704Z,99192.41
2022-12-03T19:05:43.151Z,99193.53
2022-12-03T19:08:48.427Z,99192.41
2022-12-03T19:11:52.072Z,99184.53
2022-12-03T19:14:55.902Z,99181.88
2022-12-03T19:18:00.739Z,99188.19
2022-12-03T19:21:15.095Z,99185.53
2022-12-03T19:24:24.815Z,99206.66
2022-12-03T19:27:31.405Z,99193.94
2022-12-03T19:30:35.092Z,99193.53
2022-12-03T19:33:40.522Z,99193.66
2022-12-03T19:36:43.876Z,99191.91
2022-12-03T19:39:47.881Z,99186.22
2022-12-03T19:42:51.587Z,99193.06
2022-12-03T19:45:56.340Z,99190.25
2022-12-03T19:49:04.818Z,99187.47
2022-12-03T19:52:08.394Z,99183.78
2022-12-03T19:55:13.290Z,99180.50
2022-12-03T19:58:16.828Z,99180.38
2022-12-03T20:01:25.597Z,99182.69
2022-12-03T20:04:30.500Z,99186.94
2022-12-03T20:07:33.777Z,99181.38
2022-12-03T20:10:37.726Z,99180.22
2022-12-03T20:13:41.921Z,99181.53
2022-12-03T20:16:46.142Z,99177.44
2022-12-03T20:19:51.434Z,99175.81
2022-12-03T20:22:55.047Z,99175.38
2022-12-03T20:25:58.701Z,99171.78
2022-12-03T20:29:02.435Z,99175.38
2022-12-03T20:32:06.925Z,99181.28
2022-12-03T20:35:12.388Z,99181.28
2022-12-03T20:38:15.762Z,99171.97
2022-12-03T20:41:20.135Z,99178.69
2022-12-03T20:44:23.788Z,99171.81
2022-12-03T20:47:27.473Z,99172.63
2022-12-03T20:50:32.444Z,99174.13
2022-12-03T20:53:44.746Z,99174.91
2022-12-03T20:56:51.211Z,99155.47
2022-12-03T20:59:56.070Z,99160.22
2022-12-03T21:02:59.978Z,99169.50
2022-12-03T21:06:05.634Z,99165.25
2022-12-03T21:09:10.878Z,99171.88
2022-12-03T21:12:14.404Z,99162.16
2022-12-03T21:15:18.109Z,99165.97
2022-12-03T21:18:21.690Z,99167.38
2022-12-03T21:21:27.093Z,99160.41
2022-12-03T21:24:31.049Z,99154.03
2022-12-03T21:27:34.675Z,99157.44
2022-12-03T21:30:40.240Z,99163.00
2022-12-03T21:33:43.948Z,99162.44
2022-12-03T21:36:48.976Z,99159.66
2022-12-03T21:39:52.712Z,99158.34
2022-12-03T21:42:56.340Z,99167.75
2022-12-03T21:45:59.706Z,99163.25
2022-12-03T21:49:03.295Z,99161.97
2022-12-03T21:52:08.083Z,99167.41
2022-12-03T21:55:11.746Z,99162.78
2022-12-03T21:58:15.398Z,99164.41
2022-12-03T22:01:22.056Z,99166.59
2022-12-03T22:04:25.628Z,99164.28
2022-12-03T22:07:33.346Z,99165.91
2022-12-03T22:10:37.842Z,99169.16
2022-12-03T22:13:42.895Z,99160.00
2022-12-03T22:16:46.233Z,99176.38
2022-12-03T22:19:50.109Z,99171.63
2022-12-03T22:22:55.220Z,99162.91
2022-12-03T22:26:00.977Z,99166.13
2022-12-03T22:29:04.828Z,99152.28
2022-12-03T22:32:08.362Z,99153.59
2022-12-03T22:35:12.080Z,99153.13
2022-12-03T22:38:16.975Z,99146.97
2022-12-03T22:41:20.993Z,99146.03
2022-12-03T22:44:24.454Z,99139.88
2022-12-03T22:47:27.667Z,99133.75
2022-12-03T22:50:31.230Z,99130.38
2022-12-03T22:53:35.846Z,99127.91
2022-12-03T22:56:39.583Z,99132.22
2022-12-03T22:59:42.935Z,99129.00
2022-12-03T23:02:46.560Z,99144.44
2022-12-03T23:05:50.734Z,99134.78
2022-12-03T23:08:56.751Z,99127.81
2022-12-03T23:11:59.997Z,99126.44
2022-12-03T23:15:03.803Z,99125.63
2022-12-03T23:18:07.152Z,99118.88
2022-12-03T23:21:10.705Z,99111.34
2022-12-03T23:24:15.492Z,99097.88
2022-12-03T23:27:19.095Z,99102.28
2022-12-03T23:30:22.747Z,99113.44
2022-12-03T23:33:27.414Z,99115.28
2022-12-03T23:36:34.065Z,99119.22
2022-12-03T23:39:39.302Z,99118.72
2022-12-03T23:42:42.552Z,99116.75
2022-12-03T23:45:45.998Z,99114.81
2022-12-03T23:48:49.686Z,99108.91
2022-12-03T23:51:53.314Z,99107.38
2022-12-03T23:54:58.266Z,99106.09
2022-12-03T23:58:02.128Z,99112.84
